sensor_id;sensor_type;location;lat;lon;timestamp;P1;durP1;ratioP1;P2;durP2;ratioP2
62332;SDS011;48624;49.812;8.562;2023-01-24T00:00:31;14.80;;;7.87;;
62332;SDS011;48624;49.812;8.562;2023-01-24T00:02:56;12.63;;;7.30;;
62332;SDS011;48624;49.812;8.562;2023-01-24T00:05:21;15.57;;;8.03;;
62332;SDS011;48624;49.812;8.562;2023-01-24T00:07:47;14.73;;;7.27;;
62332;SDS011;48624;49.812;8.562;2023-01-24T00:10:14;15.30;;;8.60;;
62332;SDS011;48624;49.812;8.562;2023-01-24T00:12:39;15.47;;;8.53;;
62332;SDS011;48624;49.812;8.562;2023-01-24T00:15:04;14.17;;;7.73;;
62332;SDS011;48624;49.812;8.562;2023-01-24T00:17:31;14.83;;;7.07;;
62332;SDS011;48624;49.812;8.562;2023-01-24T00:19:57;12.87;;;6.97;;
62332;SDS011;48624;49.812;8.562;2023-01-24T00:22:22;16.63;;;7.77;;
62332;SDS011;48624;49.812;8.562;2023-01-24T00:24:48;17.50;;;8.20;;
62332;SDS011;48624;49.812;8.562;2023-01-24T00:27:13;14.50;;;7.37;;
62332;SDS011;48624;49.812;8.562;2023-01-24T00:29:39;13.97;;;8.00;;
62332;SDS011;48624;49.812;8.562;2023-01-24T00:32:05;16.03;;;7.50;;
62332;SDS011;48624;49.812;8.562;2023-01-24T00:34:30;16.23;;;7.87;;
62332;SDS011;48624;49.812;8.562;2023-01-24T00:36:55;15.40;;;7.50;;
62332;SDS011;48624;49.812;8.562;2023-01-24T00:39:20;16.63;;;8.17;;
62332;SDS011;48624;49.812;8.562;2023-01-24T00:41:46;12.77;;;6.77;;
62332;SDS011;48624;49.812;8.562;2023-01-24T00:44:11;17.00;;;7.40;;
62332;SDS011;48624;49.812;8.562;2023-01-24T00:46:37;15.57;;;7.87;;
62332;SDS011;48624;49.812;8.562;2023-01-24T00:49:02;12.17;;;7.10;;
62332;SDS011;48624;49.812;8.562;2023-01-24T00:51:27;12.20;;;7.03;;
62332;SDS011;48624;49.812;8.562;2023-01-24T00:53:53;14.33;;;7.13;;
62332;SDS011;48624;49.812;8.562;2023-01-24T00:56:18;17.27;;;7.87;;
62332;SDS011;48624;49.812;8.562;2023-01-24T00:58:43;13.57;;;8.10;;
62332;SDS011;48624;49.812;8.562;2023-01-24T01:01:08;12.03;;;7.10;;
62332;SDS011;48624;49.812;8.562;2023-01-24T01:03:34;14.23;;;7.60;;
62332;SDS011;48624;49.812;8.562;2023-01-24T01:06:01;13.43;;;8.07;;
62332;SDS011;48624;49.812;8.562;2023-01-24T01:08:34;12.87;;;8.00;;
62332;SDS011;48624;49.812;8.562;2023-01-24T01:11:00;15.03;;;7.50;;
62332;SDS011;48624;49.812;8.562;2023-01-24T01:13:25;13.53;;;7.53;;
62332;SDS011;48624;49.812;8.562;2023-01-24T01:15:52;15.13;;;8.10;;
62332;SDS011;48624;49.812;8.562;2023-01-24T01:18:45;18.00;;;8.47;;
62332;SDS011;48624;49.812;8.562;2023-01-24T01:21:11;15.07;;;8.17;;
62332;SDS011;48624;49.812;8.562;2023-01-24T01:23:38;15.53;;;7.90;;
62332;SDS011;48624;49.812;8.562;2023-01-24T01:26:04;13.97;;;7.07;;
62332;SDS011;48624;49.812;8.562;2023-01-24T01:28:31;15.60;;;8.23;;
62332;SDS011;48624;49.812;8.562;2023-01-24T01:30:58;13.73;;;8.00;;
62332;SDS011;48624;49.812;8.562;2023-01-24T01:33:23;15.43;;;7.97;;
62332;SDS011;48624;49.812;8.562;2023-01-24T01:35:50;13.23;;;7.67;;
62332;SDS011;48624;49.812;8.562;2023-01-24T01:38:15;17.77;;;8.03;;
62332;SDS011;48624;49.812;8.562;2023-01-24T01:40:41;13.03;;;8.40;;
62332;SDS011;48624;49.812;8.562;2023-01-24T01:43:13;15.67;;;7.37;;
62332;SDS011;48624;49.812;8.562;2023-01-24T01:48:14;17.37;;;8.50;;
62332;SDS011;48624;49.812;8.562;2023-01-24T01:51:01;13.67;;;8.13;;
62332;SDS011;48624;49.812;8.562;2023-01-24T01:53:28;14.87;;;8.80;;
62332;SDS011;48624;49.812;8.562;2023-01-24T01:56:03;13.33;;;7.20;;
62332;SDS011;48624;49.812;8.562;2023-01-24T01:58:33;19.70;;;7.60;;
62332;SDS011;48624;49.812;8.562;2023-01-24T02:00:59;15.00;;;8.03;;
62332;SDS011;48624;49.812;8.562;2023-01-24T02:03:33;12.57;;;6.63;;
62332;SDS011;48624;49.812;8.562;2023-01-24T02:06:04;13.80;;;8.17;;
62332;SDS011;48624;49.812;8.562;2023-01-24T02:08:33;15.57;;;8.60;;
62332;SDS011;48624;49.812;8.562;2023-01-24T02:10:59;15.53;;;6.97;;
62332;SDS011;48624;49.812;8.562;2023-01-24T02:13:43;8.53;;;5.53;;
62332;SDS011;48624;49.812;8.562;2023-01-24T02:16:11;13.53;;;6.70;;
62332;SDS011;48624;49.812;8.562;2023-01-24T02:18:38;11.77;;;7.10;;
62332;SDS011;48624;49.812;8.562;2023-01-24T02:21:12;10.77;;;6.60;;
62332;SDS011;48624;49.812;8.562;2023-01-24T02:26:20;13.70;;;7.97;;
62332;SDS011;48624;49.812;8.562;2023-01-24T02:28:57;14.77;;;7.90;;
62332;SDS011;48624;49.812;8.562;2023-01-24T02:31:25;11.83;;;6.83;;
62332;SDS011;48624;49.812;8.562;2023-01-24T02:33:51;13.67;;;8.13;;
62332;SDS011;48624;49.812;8.562;2023-01-24T02:36:27;10.47;;;6.50;;
62332;SDS011;48624;49.812;8.562;2023-01-24T02:39:08;12.07;;;7.47;;
62332;SDS011;48624;49.812;8.562;2023-01-24T02:41:49;12.37;;;7.80;;
62332;SDS011;48624;49.812;8.562;2023-01-24T02:45:20;14.97;;;7.77;;
62332;SDS011;48624;49.812;8.562;2023-01-24T02:47:27;18.27;;;8.30;;
62332;SDS011;48624;49.812;8.562;2023-01-24T02:49:58;14.33;;;8.03;;
62332;SDS011;48624;49.812;8.562;2023-01-24T02:52:25;13.37;;;7.67;;
62332;SDS011;48624;49.812;8.562;2023-01-24T02:55:09;14.67;;;8.17;;
62332;SDS011;48624;49.812;8.562;2023-01-24T02:57:34;14.33;;;7.97;;
62332;SDS011;48624;49.812;8.562;2023-01-24T03:00:18;16.97;;;8.27;;
62332;SDS011;48624;49.812;8.562;2023-01-24T03:02:44;15.97;;;7.87;;
62332;SDS011;48624;49.812;8.562;2023-01-24T03:05:09;16.73;;;9.13;;
62332;SDS011;48624;49.812;8.562;2023-01-24T03:07:35;13.93;;;8.17;;
62332;SDS011;48624;49.812;8.562;2023-01-24T03:10:09;13.00;;;7.17;;
62332;SDS011;48624;49.812;8.562;2023-01-24T03:12:36;11.97;;;7.00;;
62332;SDS011;48624;49.812;8.562;2023-01-24T03:15:20;14.27;;;7.87;;
62332;SDS011;48624;49.812;8.562;2023-01-24T03:18:07;12.90;;;7.60;;
62332;SDS011;48624;49.812;8.562;2023-01-24T03:20:51;12.47;;;7.20;;
62332;SDS011;48624;49.812;8.562;2023-01-24T03:23:35;13.50;;;7.10;;
62332;SDS011;48624;49.812;8.562;2023-01-24T03:26:19;13.53;;;7.00;;
62332;SDS011;48624;49.812;8.562;2023-01-24T03:29:04;14.00;;;6.77;;
62332;SDS011;48624;49.812;8.562;2023-01-24T03:31:48;16.67;;;7.40;;
62332;SDS011;48624;49.812;8.562;2023-01-24T03:34:32;12.87;;;7.93;;
62332;SDS011;48624;49.812;8.562;2023-01-24T03:37:18;14.60;;;7.87;;
62332;SDS011;48624;49.812;8.562;2023-01-24T03:40:09;16.03;;;7.63;;
62332;SDS011;48624;49.812;8.562;2023-01-24T03:42:36;13.17;;;7.37;;
62332;SDS011;48624;49.812;8.562;2023-01-24T03:45:16;14.93;;;7.80;;
62332;SDS011;48624;49.812;8.562;2023-01-24T03:47:53;10.23;;;6.47;;
62332;SDS011;48624;49.812;8.562;2023-01-24T03:50:36;11.40;;;7.30;;
62332;SDS011;48624;49.812;8.562;2023-01-24T03:53:23;11.50;;;6.40;;
62332;SDS011;48624;49.812;8.562;2023-01-24T03:55:51;10.93;;;6.37;;
62332;SDS011;48624;49.812;8.562;2023-01-24T03:58:20;12.57;;;6.83;;
62332;SDS011;48624;49.812;8.562;2023-01-24T04:00:46;13.67;;;7.13;;
62332;SDS011;48624;49.812;8.562;2023-01-24T04:03:12;14.90;;;6.90;;
62332;SDS011;48624;49.812;8.562;2023-01-24T04:05:37;16.20;;;7.40;;
62332;SDS011;48624;49.812;8.562;2023-01-24T04:08:03;12.23;;;6.93;;
62332;SDS011;48624;49.812;8.562;2023-01-24T04:10:30;10.87;;;6.10;;
62332;SDS011;48624;49.812;8.562;2023-01-24T04:12:55;12.80;;;6.70;;
62332;SDS011;48624;49.812;8.562;2023-01-24T04:15:22;13.03;;;6.73;;
62332;SDS011;48624;49.812;8.562;2023-01-24T04:17:50;12.33;;;7.87;;
62332;SDS011;48624;49.812;8.562;2023-01-24T04:20:15;13.23;;;7.67;;
62332;SDS011;48624;49.812;8.562;2023-01-24T04:22:41;14.13;;;7.37;;
62332;SDS011;48624;49.812;8.562;2023-01-24T04:25:07;13.67;;;7.50;;
62332;SDS011;48624;49.812;8.562;2023-01-24T04:27:33;10.37;;;6.67;;
62332;SDS011;48624;49.812;8.562;2023-01-24T04:29:58;12.50;;;7.00;;
62332;SDS011;48624;49.812;8.562;2023-01-24T04:32:24;14.87;;;7.60;;
62332;SDS011;48624;49.812;8.562;2023-01-24T04:34:49;13.67;;;7.60;;
62332;SDS011;48624;49.812;8.562;2023-01-24T04:37:14;12.07;;;7.97;;
62332;SDS011;48624;49.812;8.562;2023-01-24T04:39:40;13.37;;;7.23;;
62332;SDS011;48624;49.812;8.562;2023-01-24T04:42:05;12.97;;;7.40;;
62332;SDS011;48624;49.812;8.562;2023-01-24T04:44:31;18.70;;;8.57;;
62332;SDS011;48624;49.812;8.562;2023-01-24T04:46:57;12.07;;;7.50;;
62332;SDS011;48624;49.812;8.562;2023-01-24T04:49:22;15.27;;;8.03;;
62332;SDS011;48624;49.812;8.562;2023-01-24T04:51:48;14.13;;;7.57;;
62332;SDS011;48624;49.812;8.562;2023-01-24T04:54:14;14.30;;;7.90;;
62332;SDS011;48624;49.812;8.562;2023-01-24T04:56:40;13.33;;;7.10;;
62332;SDS011;48624;49.812;8.562;2023-01-24T04:59:06;14.77;;;7.57;;
62332;SDS011;48624;49.812;8.562;2023-01-24T05:01:32;12.67;;;6.60;;
62332;SDS011;48624;49.812;8.562;2023-01-24T05:03:57;13.97;;;7.73;;
62332;SDS011;48624;49.812;8.562;2023-01-24T05:06:26;11.73;;;6.47;;
62332;SDS011;48624;49.812;8.562;2023-01-24T05:08:53;13.53;;;7.17;;
62332;SDS011;48624;49.812;8.562;2023-01-24T05:11:19;17.00;;;8.00;;
62332;SDS011;48624;49.812;8.562;2023-01-24T05:13:45;11.90;;;6.70;;
62332;SDS011;48624;49.812;8.562;2023-01-24T05:16:10;12.00;;;6.73;;
62332;SDS011;48624;49.812;8.562;2023-01-24T05:18:35;13.87;;;6.87;;
62332;SDS011;48624;49.812;8.562;2023-01-24T05:21:08;12.17;;;6.77;;
62332;SDS011;48624;49.812;8.562;2023-01-24T05:23:36;15.43;;;7.63;;
62332;SDS011;48624;49.812;8.562;2023-01-24T05:26:02;14.00;;;7.53;;
62332;SDS011;48624;49.812;8.562;2023-01-24T05:28:28;14.90;;;7.40;;
62332;SDS011;48624;49.812;8.562;2023-01-24T05:30:57;16.53;;;7.57;;
62332;SDS011;48624;49.812;8.562;2023-01-24T05:33:26;13.03;;;8.07;;
62332;SDS011;48624;49.812;8.562;2023-01-24T05:35:56;14.77;;;8.50;;
62332;SDS011;48624;49.812;8.562;2023-01-24T05:38:23;15.20;;;7.80;;
62332;SDS011;48624;49.812;8.562;2023-01-24T05:40:48;15.53;;;8.33;;
62332;SDS011;48624;49.812;8.562;2023-01-24T05:43:13;16.77;;;7.97;;
62332;SDS011;48624;49.812;8.562;2023-01-24T05:45:38;15.37;;;7.80;;
62332;SDS011;48624;49.812;8.562;2023-01-24T05:48:04;14.77;;;8.43;;
62332;SDS011;48624;49.812;8.562;2023-01-24T05:50:29;18.83;;;9.37;;
62332;SDS011;48624;49.812;8.562;2023-01-24T05:52:55;16.40;;;8.37;;
62332;SDS011;48624;49.812;8.562;2023-01-24T05:55:20;14.07;;;7.90;;
62332;SDS011;48624;49.812;8.562;2023-01-24T05:57:45;15.57;;;8.77;;
62332;SDS011;48624;49.812;8.562;2023-01-24T06:00:11;15.80;;;8.57;;
62332;SDS011;48624;49.812;8.562;2023-01-24T06:02:36;19.77;;;9.23;;
62332;SDS011;48624;49.812;8.562;2023-01-24T06:05:02;17.17;;;8.90;;
62332;SDS011;48624;49.812;8.562;2023-01-24T06:07:27;17.43;;;8.80;;
62332;SDS011;48624;49.812;8.562;2023-01-24T06:09:52;16.97;;;8.80;;
62332;SDS011;48624;49.812;8.562;2023-01-24T06:12:17;14.87;;;7.77;;
62332;SDS011;48624;49.812;8.562;2023-01-24T06:14:43;14.17;;;7.77;;
62332;SDS011;48624;49.812;8.562;2023-01-24T06:17:08;13.37;;;7.53;;
62332;SDS011;48624;49.812;8.562;2023-01-24T06:19:33;15.03;;;8.53;;
62332;SDS011;48624;49.812;8.562;2023-01-24T06:22:13;15.93;;;7.17;;
62332;SDS011;48624;49.812;8.562;2023-01-24T06:24:47;12.27;;;7.00;;
62332;SDS011;48624;49.812;8.562;2023-01-24T06:27:12;13.90;;;7.40;;
62332;SDS011;48624;49.812;8.562;2023-01-24T06:29:38;15.20;;;8.53;;
62332;SDS011;48624;49.812;8.562;2023-01-24T06:32:07;14.77;;;7.50;;
62332;SDS011;48624;49.812;8.562;2023-01-24T06:37:52;16.83;;;7.93;;
62332;SDS011;48624;49.812;8.562;2023-01-24T06:40:19;14.67;;;8.27;;
62332;SDS011;48624;49.812;8.562;2023-01-24T06:42:47;13.33;;;7.23;;
62332;SDS011;48624;49.812;8.562;2023-01-24T06:45:14;12.80;;;7.83;;
62332;SDS011;48624;49.812;8.562;2023-01-24T06:47:39;13.93;;;7.97;;
62332;SDS011;48624;49.812;8.562;2023-01-24T06:50:05;12.23;;;7.43;;
62332;SDS011;48624;49.812;8.562;2023-01-24T06:52:33;13.07;;;6.77;;
62332;SDS011;48624;49.812;8.562;2023-01-24T06:54:59;16.40;;;9.10;;
62332;SDS011;48624;49.812;8.562;2023-01-24T06:57:24;13.23;;;7.37;;
62332;SDS011;48624;49.812;8.562;2023-01-24T06:59:50;12.43;;;6.83;;
62332;SDS011;48624;49.812;8.562;2023-01-24T07:02:15;12.83;;;6.80;;
62332;SDS011;48624;49.812;8.562;2023-01-24T07:04:40;14.07;;;6.93;;
62332;SDS011;48624;49.812;8.562;2023-01-24T07:07:06;16.53;;;7.90;;
62332;SDS011;48624;49.812;8.562;2023-01-24T07:09:31;14.93;;;8.43;;
62332;SDS011;48624;49.812;8.562;2023-01-24T07:11:56;15.67;;;7.37;;
62332;SDS011;48624;49.812;8.562;2023-01-24T07:14:23;14.90;;;7.30;;
62332;SDS011;48624;49.812;8.562;2023-01-24T07:16:50;12.77;;;6.83;;
62332;SDS011;48624;49.812;8.562;2023-01-24T07:19:16;14.60;;;7.40;;
62332;SDS011;48624;49.812;8.562;2023-01-24T07:21:43;16.00;;;7.53;;
62332;SDS011;48624;49.812;8.562;2023-01-24T07:24:16;14.90;;;8.00;;
62332;SDS011;48624;49.812;8.562;2023-01-24T07:26:44;12.43;;;7.07;;
62332;SDS011;48624;49.812;8.562;2023-01-24T07:29:09;13.23;;;7.13;;
62332;SDS011;48624;49.812;8.562;2023-01-24T07:31:36;18.00;;;8.53;;
62332;SDS011;48624;49.812;8.562;2023-01-24T07:34:01;12.80;;;6.97;;
62332;SDS011;48624;49.812;8.562;2023-01-24T07:36:27;14.00;;;7.13;;
62332;SDS011;48624;49.812;8.562;2023-01-24T07:38:55;13.17;;;7.00;;
62332;SDS011;48624;49.812;8.562;2023-01-24T07:41:22;15.60;;;7.67;;
62332;SDS011;48624;49.812;8.562;2023-01-24T07:43:47;15.80;;;7.93;;
62332;SDS011;48624;49.812;8.562;2023-01-24T07:46:13;14.13;;;7.77;;
62332;SDS011;48624;49.812;8.562;2023-01-24T07:48:38;17.20;;;7.57;;
62332;SDS011;48624;49.812;8.562;2023-01-24T07:51:05;15.07;;;7.07;;
62332;SDS011;48624;49.812;8.562;2023-01-24T07:53:30;13.67;;;6.40;;
62332;SDS011;48624;49.812;8.562;2023-01-24T07:55:59;13.77;;;6.47;;
62332;SDS011;48624;49.812;8.562;2023-01-24T07:58:25;13.00;;;7.00;;
62332;SDS011;48624;49.812;8.562;2023-01-24T08:00:51;13.30;;;7.13;;
62332;SDS011;48624;49.812;8.562;2023-01-24T08:03:16;11.93;;;6.57;;
62332;SDS011;48624;49.812;8.562;2023-01-24T08:05:42;12.13;;;6.33;;
62332;SDS011;48624;49.812;8.562;2023-01-24T08:08:08;10.97;;;6.57;;
62332;SDS011;48624;49.812;8.562;2023-01-24T08:10:33;15.23;;;6.73;;
62332;SDS011;48624;49.812;8.562;2023-01-24T08:12:58;13.13;;;7.03;;
62332;SDS011;48624;49.812;8.562;2023-01-24T08:15:24;13.83;;;6.47;;
62332;SDS011;48624;49.812;8.562;2023-01-24T08:17:49;10.87;;;5.77;;
62332;SDS011;48624;49.812;8.562;2023-01-24T08:20:14;12.57;;;6.13;;
62332;SDS011;48624;49.812;8.562;2023-01-24T08:22:40;13.40;;;7.17;;
62332;SDS011;48624;49.812;8.562;2023-01-24T08:25:06;12.23;;;6.17;;
62332;SDS011;48624;49.812;8.562;2023-01-24T08:27:32;11.70;;;6.67;;
62332;SDS011;48624;49.812;8.562;2023-01-24T08:29:58;9.43;;;5.77;;
62332;SDS011;48624;49.812;8.562;2023-01-24T08:32:24;14.03;;;6.53;;
62332;SDS011;48624;49.812;8.562;2023-01-24T08:34:50;14.73;;;7.60;;
62332;SDS011;48624;49.812;8.562;2023-01-24T08:37:15;11.93;;;6.63;;
62332;SDS011;48624;49.812;8.562;2023-01-24T08:39:41;11.97;;;5.70;;
62332;SDS011;48624;49.812;8.562;2023-01-24T08:42:07;13.80;;;6.20;;
62332;SDS011;48624;49.812;8.562;2023-01-24T08:44:32;11.57;;;6.60;;
62332;SDS011;48624;49.812;8.562;2023-01-24T08:46:58;12.87;;;6.50;;
62332;SDS011;48624;49.812;8.562;2023-01-24T08:49:23;10.27;;;5.47;;
62332;SDS011;48624;49.812;8.562;2023-01-24T08:51:48;12.90;;;5.77;;
62332;SDS011;48624;49.812;8.562;2023-01-24T08:54:14;11.63;;;6.80;;
62332;SDS011;48624;49.812;8.562;2023-01-24T08:56:40;8.63;;;5.13;;
62332;SDS011;48624;49.812;8.562;2023-01-24T08:59:05;11.07;;;5.00;;
62332;SDS011;48624;49.812;8.562;2023-01-24T09:01:30;9.07;;;4.87;;
62332;SDS011;48624;49.812;8.562;2023-01-24T09:03:58;9.17;;;5.67;;
62332;SDS011;48624;49.812;8.562;2023-01-24T09:06:24;10.50;;;5.53;;
62332;SDS011;48624;49.812;8.562;2023-01-24T09:08:53;13.00;;;6.30;;
62332;SDS011;48624;49.812;8.562;2023-01-24T09:11:19;10.93;;;5.23;;
62332;SDS011;48624;49.812;8.562;2023-01-24T09:13:45;10.90;;;6.00;;
62332;SDS011;48624;49.812;8.562;2023-01-24T09:16:11;9.50;;;5.73;;
62332;SDS011;48624;49.812;8.562;2023-01-24T09:18:36;11.30;;;6.17;;
62332;SDS011;48624;49.812;8.562;2023-01-24T09:21:02;11.50;;;6.43;;
62332;SDS011;48624;49.812;8.562;2023-01-24T09:23:28;9.83;;;6.90;;
62332;SDS011;48624;49.812;8.562;2023-01-24T09:25:53;10.00;;;6.05;;
62332;SDS011;48624;49.812;8.562;2023-01-24T09:28:19;14.30;;;6.87;;
62332;SDS011;48624;49.812;8.562;2023-01-24T09:30:48;10.53;;;6.30;;
62332;SDS011;48624;49.812;8.562;2023-01-24T09:33:15;12.67;;;6.27;;
62332;SDS011;48624;49.812;8.562;2023-01-24T09:35:42;11.73;;;5.97;;
62332;SDS011;48624;49.812;8.562;2023-01-24T09:38:16;11.73;;;6.30;;
62332;SDS011;48624;49.812;8.562;2023-01-24T09:40:43;11.10;;;6.33;;
62332;SDS011;48624;49.812;8.562;2023-01-24T09:43:15;12.80;;;6.67;;
62332;SDS011;48624;49.812;8.562;2023-01-24T09:48:29;9.43;;;5.37;;
62332;SDS011;48624;49.812;8.562;2023-01-24T09:50:59;10.00;;;6.03;;
62332;SDS011;48624;49.812;8.562;2023-01-24T09:53:29;10.57;;;5.43;;
62332;SDS011;48624;49.812;8.562;2023-01-24T09:56:02;10.27;;;5.87;;
62332;SDS011;48624;49.812;8.562;2023-01-24T10:01:00;11.43;;;6.30;;
62332;SDS011;48624;49.812;8.562;2023-01-24T10:03:30;10.70;;;5.70;;
62332;SDS011;48624;49.812;8.562;2023-01-24T10:05:58;10.43;;;5.70;;
62332;SDS011;48624;49.812;8.562;2023-01-24T10:17:13;10.13;;;5.77;;
62332;SDS011;48624;49.812;8.562;2023-01-24T10:19:35;10.97;;;6.03;;
62332;SDS011;48624;49.812;8.562;2023-01-24T10:24:51;10.97;;;5.43;;
62332;SDS011;48624;49.812;8.562;2023-01-24T10:27:30;10.07;;;5.60;;
62332;SDS011;48624;49.812;8.562;2023-01-24T10:30:02;10.73;;;5.13;;
62332;SDS011;48624;49.812;8.562;2023-01-24T10:32:38;8.53;;;4.90;;
62332;SDS011;48624;49.812;8.562;2023-01-24T10:35:12;10.33;;;5.23;;
62332;SDS011;48624;49.812;8.562;2023-01-24T10:37:47;8.93;;;5.43;;
62332;SDS011;48624;49.812;8.562;2023-01-24T10:40:20;9.50;;;5.70;;
62332;SDS011;48624;49.812;8.562;2023-01-24T10:42:49;10.67;;;5.80;;
62332;SDS011;48624;49.812;8.562;2023-01-24T10:53:55;9.03;;;5.20;;
62332;SDS011;48624;49.812;8.562;2023-01-24T10:56:26;10.70;;;6.57;;
62332;SDS011;48624;49.812;8.562;2023-01-24T10:58:55;9.82;;;5.47;;
62332;SDS011;48624;49.812;8.562;2023-01-24T11:01:38;10.37;;;6.20;;
62332;SDS011;48624;49.812;8.562;2023-01-24T11:04:12;10.80;;;5.90;;
62332;SDS011;48624;49.812;8.562;2023-01-24T11:06:47;10.90;;;5.37;;
62332;SDS011;48624;49.812;8.562;2023-01-24T11:09:14;7.73;;;5.63;;
62332;SDS011;48624;49.812;8.562;2023-01-24T11:11:43;12.53;;;6.53;;
62332;SDS011;48624;49.812;8.562;2023-01-24T11:14:16;13.57;;;6.40;;
62332;SDS011;48624;49.812;8.562;2023-01-24T11:16:45;11.80;;;7.00;;
62332;SDS011;48624;49.812;8.562;2023-01-24T11:19:24;14.53;;;7.43;;
62332;SDS011;48624;49.812;8.562;2023-01-24T11:21:51;11.93;;;6.23;;
62332;SDS011;48624;49.812;8.562;2023-01-24T11:24:18;9.17;;;5.63;;
62332;SDS011;48624;49.812;8.562;2023-01-24T11:27:01;14.05;;;6.97;;
62332;SDS011;48624;49.812;8.562;2023-01-24T11:29:38;9.83;;;6.20;;
62332;SDS011;48624;49.812;8.562;2023-01-24T11:40:02;7.87;;;4.13;;
62332;SDS011;48624;49.812;8.562;2023-01-24T11:45:55;7.90;;;5.33;;
62332;SDS011;48624;49.812;8.562;2023-01-24T11:48:47;7.53;;;5.33;;
62332;SDS011;48624;49.812;8.562;2023-01-24T11:51:37;8.93;;;5.40;;
62332;SDS011;48624;49.812;8.562;2023-01-24T12:00:35;10.43;;;5.78;;
62332;SDS011;48624;49.812;8.562;2023-01-24T12:22:44;11.27;;;6.53;;
62332;SDS011;48624;49.812;8.562;2023-01-24T12:25:28;9.90;;;5.40;;
62332;SDS011;48624;49.812;8.562;2023-01-24T12:27:59;9.50;;;5.67;;
62332;SDS011;48624;49.812;8.562;2023-01-24T12:30:33;9.97;;;5.57;;
62332;SDS011;48624;49.812;8.562;2023-01-24T12:38:55;9.00;;;5.43;;
62332;SDS011;48624;49.812;8.562;2023-01-24T12:41:28;8.93;;;5.77;;
62332;SDS011;48624;49.812;8.562;2023-01-24T12:47:10;8.80;;;5.53;;
62332;SDS011;48624;49.812;8.562;2023-01-24T12:49:45;7.83;;;4.50;;
62332;SDS011;48624;49.812;8.562;2023-01-24T12:52:33;5.93;;;3.50;;
62332;SDS011;48624;49.812;8.562;2023-01-24T12:55:24;7.20;;;4.77;;
62332;SDS011;48624;49.812;8.562;2023-01-24T12:58:09;8.43;;;5.23;;
62332;SDS011;48624;49.812;8.562;2023-01-24T13:00:48;12.90;;;6.73;;
62332;SDS011;48624;49.812;8.562;2023-01-24T13:03:40;10.67;;;6.03;;
62332;SDS011;48624;49.812;8.562;2023-01-24T13:12:01;7.60;;;5.10;;
62332;SDS011;48624;49.812;8.562;2023-01-24T13:14:33;8.50;;;5.87;;
62332;SDS011;48624;49.812;8.562;2023-01-24T13:17:10;8.93;;;5.07;;
62332;SDS011;48624;49.812;8.562;2023-01-24T13:25:36;10.10;;;5.27;;
62332;SDS011;48624;49.812;8.562;2023-01-24T13:28:21;9.93;;;5.40;;
62332;SDS011;48624;49.812;8.562;2023-01-24T13:30:52;11.40;;;6.80;;
62332;SDS011;48624;49.812;8.562;2023-01-24T13:36:04;8.90;;;5.33;;
62332;SDS011;48624;49.812;8.562;2023-01-24T13:38:34;9.23;;;5.17;;
62332;SDS011;48624;49.812;8.562;2023-01-24T13:41:06;6.90;;;4.30;;
62332;SDS011;48624;49.812;8.562;2023-01-24T13:46:11;7.83;;;5.93;;
62332;SDS011;48624;49.812;8.562;2023-01-24T13:51:21;10.13;;;6.53;;
62332;SDS011;48624;49.812;8.562;2023-01-24T13:56:31;11.63;;;6.80;;
62332;SDS011;48624;49.812;8.562;2023-01-24T13:58:58;12.53;;;6.83;;
62332;SDS011;48624;49.812;8.562;2023-01-24T14:01:24;9.10;;;5.97;;
62332;SDS011;48624;49.812;8.562;2023-01-24T14:03:52;11.90;;;7.13;;
62332;SDS011;48624;49.812;8.562;2023-01-24T14:06:26;11.03;;;5.47;;
62332;SDS011;48624;49.812;8.562;2023-01-24T14:11:55;7.33;;;4.50;;
62332;SDS011;48624;49.812;8.562;2023-01-24T14:14:32;9.93;;;6.10;;
62332;SDS011;48624;49.812;8.562;2023-01-24T14:17:03;10.97;;;7.03;;
62332;SDS011;48624;49.812;8.562;2023-01-24T14:19:50;9.53;;;5.50;;
62332;SDS011;48624;49.812;8.562;2023-01-24T14:22:18;8.63;;;6.13;;
62332;SDS011;48624;49.812;8.562;2023-01-24T14:24:56;7.50;;;4.13;;
62332;SDS011;48624;49.812;8.562;2023-01-24T14:27:46;10.03;;;5.97;;
62332;SDS011;48624;49.812;8.562;2023-01-24T14:32:45;11.20;;;6.07;;
62332;SDS011;48624;49.812;8.562;2023-01-24T14:35:24;9.20;;;5.93;;
62332;SDS011;48624;49.812;8.562;2023-01-24T14:37:52;8.50;;;5.20;;
62332;SDS011;48624;49.812;8.562;2023-01-24T14:40:25;11.17;;;6.50;;
62332;SDS011;48624;49.812;8.562;2023-01-24T14:43:00;9.27;;;5.00;;
62332;SDS011;48624;49.812;8.562;2023-01-24T14:45:28;9.27;;;5.37;;
62332;SDS011;48624;49.812;8.562;2023-01-24T14:47:55;10.93;;;6.17;;
62332;SDS011;48624;49.812;8.562;2023-01-24T14:50:29;19.47;;;9.23;;
62332;SDS011;48624;49.812;8.562;2023-01-24T14:52:59;13.50;;;7.73;;
62332;SDS011;48624;49.812;8.562;2023-01-24T14:57:50;9.60;;;5.23;;
62332;SDS011;48624;49.812;8.562;2023-01-24T15:00:16;11.43;;;5.73;;
62332;SDS011;48624;49.812;8.562;2023-01-24T15:02:53;11.97;;;6.47;;
62332;SDS011;48624;49.812;8.562;2023-01-24T15:05:21;10.30;;;6.17;;
62332;SDS011;48624;49.812;8.562;2023-01-24T15:07:55;12.63;;;6.50;;
62332;SDS011;48624;49.812;8.562;2023-01-24T15:10:26;11.63;;;6.40;;
62332;SDS011;48624;49.812;8.562;2023-01-24T15:12:55;11.10;;;6.57;;
62332;SDS011;48624;49.812;8.562;2023-01-24T15:15:23;8.80;;;5.40;;
62332;SDS011;48624;49.812;8.562;2023-01-24T15:17:50;10.67;;;5.67;;
62332;SDS011;48624;49.812;8.562;2023-01-24T15:20:23;14.83;;;6.00;;
62332;SDS011;48624;49.812;8.562;2023-01-24T15:22:52;8.70;;;4.50;;
62332;SDS011;48624;49.812;8.562;2023-01-24T15:25:25;11.50;;;6.20;;
62332;SDS011;48624;49.812;8.562;2023-01-24T15:27:56;9.80;;;4.67;;
62332;SDS011;48624;49.812;8.562;2023-01-24T15:30:32;11.17;;;5.77;;
62332;SDS011;48624;49.812;8.562;2023-01-24T15:35:34;8.90;;;5.10;;
62332;SDS011;48624;49.812;8.562;2023-01-24T15:41:16;7.80;;;5.07;;
62332;SDS011;48624;49.812;8.562;2023-01-24T15:43:48;9.50;;;5.60;;
62332;SDS011;48624;49.812;8.562;2023-01-24T15:49:26;9.47;;;5.40;;
62332;SDS011;48624;49.812;8.562;2023-01-24T15:54:40;7.73;;;5.30;;
62332;SDS011;48624;49.812;8.562;2023-01-24T15:57:31;10.73;;;4.63;;
62332;SDS011;48624;49.812;8.562;2023-01-24T16:00:17;9.23;;;5.07;;
62332;SDS011;48624;49.812;8.562;2023-01-24T16:02:47;12.43;;;8.10;;
62332;SDS011;48624;49.812;8.562;2023-01-24T16:05:13;10.57;;;5.93;;
62332;SDS011;48624;49.812;8.562;2023-01-24T16:07:41;13.20;;;7.17;;
62332;SDS011;48624;49.812;8.562;2023-01-24T16:10:06;10.43;;;5.63;;
62332;SDS011;48624;49.812;8.562;2023-01-24T16:12:33;9.93;;;6.47;;
62332;SDS011;48624;49.812;8.562;2023-01-24T16:14:59;10.10;;;6.03;;
62332;SDS011;48624;49.812;8.562;2023-01-24T16:17:25;10.17;;;5.50;;
62332;SDS011;48624;49.812;8.562;2023-01-24T16:19:51;15.43;;;7.83;;
62332;SDS011;48624;49.812;8.562;2023-01-24T16:22:16;9.60;;;5.30;;
62332;SDS011;48624;49.812;8.562;2023-01-24T16:24:42;11.77;;;6.70;;
62332;SDS011;48624;49.812;8.562;2023-01-24T16:27:09;11.00;;;6.60;;
62332;SDS011;48624;49.812;8.562;2023-01-24T16:29:37;9.13;;;5.27;;
62332;SDS011;48624;49.812;8.562;2023-01-24T16:32:02;9.47;;;5.60;;
62332;SDS011;48624;49.812;8.562;2023-01-24T16:34:28;9.27;;;5.97;;
62332;SDS011;48624;49.812;8.562;2023-01-24T16:36:53;9.53;;;5.33;;
62332;SDS011;48624;49.812;8.562;2023-01-24T16:39:19;11.97;;;5.93;;
62332;SDS011;48624;49.812;8.562;2023-01-24T16:41:46;11.90;;;6.30;;
62332;SDS011;48624;49.812;8.562;2023-01-24T16:44:12;9.20;;;5.03;;
62332;SDS011;48624;49.812;8.562;2023-01-24T16:46:38;12.27;;;6.77;;
62332;SDS011;48624;49.812;8.562;2023-01-24T16:49:04;10.90;;;6.83;;
62332;SDS011;48624;49.812;8.562;2023-01-24T16:51:29;9.70;;;5.93;;